createdAt,value
2023-03-21T00:01:38.802Z,99.90
2023-03-21T00:04:10.545Z,99.90
2023-03-21T00:06:38.590Z,99.90
2023-03-21T00:09:06.318Z,99.90
2023-03-21T00:11:41.107Z,99.90
2023-03-21T00:14:09.084Z,99.90
2023-03-21T00:16:37.550Z,99.90
2023-03-21T00:19:10.205Z,99.90
2023-03-21T00:21:55.248Z,99.90
2023-03-21T00:24:28.412Z,99.90
2023-03-21T00:27:03.368Z,99.90
2023-03-21T00:29:38.461Z,99.90
2023-03-21T00:32:07.350Z,99.90
2023-03-21T00:34:42.918Z,99.90
2023-03-21T00:37:18.807Z,99.90
2023-03-21T00:39:49.855Z,99.90
2023-03-21T00:42:16.925Z,99.90
2023-03-21T00:44:45.670Z,99.90
2023-03-21T00:47:14.392Z,99.90
2023-03-21T00:49:43.281Z,99.90
2023-03-21T00:52:27.531Z,99.90
2023-03-21T00:55:05.078Z,99.90
2023-03-21T00:57:38.461Z,99.90
2023-03-21T01:00:10.870Z,99.90
2023-03-21T01:02:38.592Z,99.90
2023-03-21T01:05:09.650Z,99.90
2023-03-21T01:07:37.391Z,99.90
2023-03-21T01:10:06.218Z,99.90
2023-03-21T01:12:37.487Z,99.90
2023-03-21T01:15:05.588Z,99.90
2023-03-21T01:17:32.660Z,99.90
2023-03-21T01:20:00.316Z,99.90
2023-03-21T01:22:29.074Z,99.90
2023-03-21T01:25:09.055Z,99.90
2023-03-21T01:27:39.303Z,99.90
2023-03-21T01:32:56.346Z,99.90
2023-03-21T01:35:24.503Z,99.90
2023-03-21T01:37:54.678Z,99.90
2023-03-21T01:40:25.816Z,99.90
2023-03-21T01:42:52.935Z,99.90
2023-03-21T01:46:09.385Z,99.90
2023-03-21T01:48:38.646Z,99.90
2023-03-21T01:51:07.815Z,99.90
2023-03-21T01:53:40.369Z,99.90
2023-03-21T01:56:18.173Z,99.90
2023-03-21T01:58:47.687Z,99.90
2023-03-21T02:01:15.867Z,99.90
2023-03-21T02:03:52.906Z,99.90
2023-03-21T02:06:34.109Z,99.90
2023-03-21T02:09:10.473Z,99.90
2023-03-21T02:11:40.569Z,99.90
2023-03-21T02:14:15.351Z,99.90
2023-03-21T02:17:01.656Z,99.90
2023-03-21T02:20:36.329Z,99.90
2023-03-21T02:23:58.245Z,99.90
2023-03-21T02:27:04.850Z,99.90
2023-03-21T02:30:14.893Z,99.90
2023-03-21T02:33:16.426Z,99.90
2023-03-21T02:36:18.140Z,99.90
2023-03-21T02:38:55.056Z,99.90
2023-03-21T02:41:40.141Z,99.90
2023-03-21T02:44:17.171Z,99.90
2023-03-21T02:47:02.974Z,99.90
2023-03-21T02:49:42.096Z,99.90
2023-03-21T02:52:31.757Z,99.90
2023-03-21T02:55:14.187Z,99.90
2023-03-21T02:57:44.456Z,99.90
2023-03-21T03:00:20.808Z,99.90
2023-03-21T03:03:02.536Z,99.90
2023-03-21T03:05:40.668Z,99.90
2023-03-21T03:08:38.485Z,99.90
2023-03-21T03:11:25.523Z,99.90
2023-03-21T03:14:35.609Z,99.90
2023-03-21T03:17:18.080Z,99.90
2023-03-21T03:20:15.484Z,99.90
2023-03-21T03:22:54.289Z,99.90
2023-03-21T03:25:41.612Z,99.90
2023-03-21T03:28:14.421Z,99.90
2023-03-21T03:30:57.170Z,99.90
2023-03-21T03:33:33.118Z,99.90
2023-03-21T03:36:05.515Z,99.90
2023-03-21T03:38:35.808Z,99.90
2023-03-21T03:41:09.573Z,99.90
2023-03-21T03:43:47.427Z,99.90
2023-03-21T03:46:19.955Z,99.90
2023-03-21T03:48:52.542Z,99.90
2023-03-21T03:51:26.536Z,99.90
2023-03-21T03:54:01.156Z,99.90
2023-03-21T03:56:29.386Z,99.90
2023-03-21T03:58:58.494Z,99.90
2023-03-21T04:01:27.085Z,99.90
2023-03-21T04:04:03.735Z,99.90
2023-03-21T04:06:38.587Z,99.90
2023-03-21T04:09:19.138Z,99.90
2023-03-21T04:11:48.430Z,99.90
2023-03-21T04:14:17.791Z,99.90
2023-03-21T04:16:48.325Z,99.90
2023-03-21T04:19:18.602Z,99.90
2023-03-21T04:21:47.552Z,99.90
2023-03-21T04:24:17.718Z,99.90
2023-03-21T04:26:48.370Z,99.90
2023-03-21T04:29:17.629Z,99.90
2023-03-21T04:31:44.726Z,99.90
2023-03-21T04:34:12.989Z,99.90
2023-03-21T04:36:49.593Z,99.90
2023-03-21T04:39:21.251Z,99.90
2023-03-21T04:41:48.541Z,99.90
2023-03-21T04:44:17.978Z,99.90
2023-03-21T04:46:45.943Z,99.90
2023-03-21T04:49:13.251Z,99.90
2023-03-21T04:51:41.147Z,99.90
2023-03-21T04:56:36.619Z,99.90
2023-03-21T04:59:09.865Z,99.90
2023-03-21T05:01:38.771Z,99.90
2023-03-21T05:04:07.213Z,99.90
2023-03-21T05:06:34.734Z,99.90
2023-03-21T05:09:05.524Z,99.90
2023-03-21T05:11:37.492Z,99.90
2023-03-21T05:14:04.951Z,99.90
2023-03-21T05:16:38.713Z,99.90
2023-03-21T05:19:05.924Z,99.90
2023-03-21T05:21:41.255Z,99.90
2023-03-21T05:24:12.135Z,99.90
2023-03-21T05:26:40.587Z,99.90
2023-03-21T05:29:08.664Z,99.90
2023-03-21T05:31:37.681Z,99.90
2023-03-21T05:34:05.530Z,99.90
2023-03-21T05:36:34.055Z,99.90
2023-03-21T05:39:01.877Z,99.90
2023-03-21T05:41:29.751Z,99.90
2023-03-21T05:43:57.130Z,99.90
2023-03-21T05:46:24.770Z,99.90
2023-03-21T05:48:53.667Z,99.90
2023-03-21T05:51:21.563Z,99.90
2023-03-21T05:53:48.937Z,99.90
2023-03-21T05:56:17.117Z,99.90
2023-03-21T05:58:44.612Z,99.90
2023-03-21T06:01:11.712Z,99.90
2023-03-21T06:03:38.864Z,99.90
2023-03-21T06:06:08.790Z,99.90
2023-03-21T06:08:35.896Z,99.90
2023-03-21T06:11:21.150Z,99.90
2023-03-21T06:13:50.108Z,99.90
2023-03-21T06:16:17.272Z,99.90
2023-03-21T06:18:44.523Z,99.90
2023-03-21T06:21:13.244Z,99.90
2023-03-21T06:23:40.747Z,99.90
2023-03-21T06:26:08.814Z,99.90
2023-03-21T06:28:37.122Z,99.90
2023-03-21T06:31:05.243Z,99.90
2023-03-21T06:33:32.293Z,99.90
2023-03-21T06:36:02.561Z,99.90
2023-03-21T06:38:32.117Z,99.90
2023-03-21T06:40:59.622Z,99.90
2023-03-21T06:43:27.337Z,99.90
2023-03-21T06:45:54.467Z,99.90
2023-03-21T06:48:22.516Z,99.90
2023-03-21T06:50:50.345Z,99.90
2023-03-21T06:53:18.415Z,99.90
2023-03-21T06:55:51.329Z,99.90
2023-03-21T06:58:19.379Z,99.90
2023-03-21T07:00:47.195Z,99.90
2023-03-21T07:03:16.958Z,99.90
2023-03-21T07:05:44.517Z,99.90
2023-03-21T07:08:12.704Z,99.90
2023-03-21T07:10:41.210Z,99.90
2023-03-21T07:13:10.373Z,99.90
2023-03-21T07:15:39.290Z,99.90
2023-03-21T07:18:10.412Z,99.90
2023-03-21T07:20:38.885Z,99.90
2023-03-21T07:23:07.896Z,99.90
2023-03-21T07:25:36.392Z,99.90
2023-03-21T07:28:04.466Z,99.90
2023-03-21T07:30:38.444Z,99.90
2023-03-21T07:33:06.365Z,99.90
2023-03-21T07:35:34.454Z,99.90
2023-03-21T07:38:05.345Z,99.90
2023-03-21T07:40:33.250Z,99.90
2023-03-21T07:45:38.003Z,99.90
2023-03-21T07:48:05.409Z,99.90
2023-03-21T07:50:36.549Z,99.90
2023-03-21T07:53:03.626Z,99.90
2023-03-21T07:55:34.750Z,99.90
2023-03-21T07:58:04.949Z,99.90
2023-03-21T08:00:33.108Z,99.90
2023-03-21T08:03:02.560Z,99.90
2023-03-21T08:05:34.170Z,99.90
2023-03-21T08:08:42.106Z,99.90
2023-03-21T08:11:13.228Z,99.90
2023-03-21T08:13:40.975Z,99.90
2023-03-21T08:16:09.708Z,99.90
2023-03-21T08:18:38.116Z,99.90
2023-03-21T08:21:11.328Z,99.90
2023-03-21T08:23:38.441Z,99.90
2023-03-21T08:26:08.357Z,99.90
2023-03-21T08:28:39.657Z,99.90
2023-03-21T08:31:09.029Z,99.90
2023-03-21T08:33:38.125Z,99.90
2023-03-21T08:36:07.777Z,99.90
2023-03-21T08:38:36.438Z,99.90
2023-03-21T08:41:07.283Z,99.90
2023-03-21T08:43:34.801Z,99.90
2023-03-21T08:46:06.649Z,99.90
2023-03-21T08:48:34.514Z,99.90
2023-03-21T08:51:03.164Z,99.90
2023-03-21T08:53:30.876Z,99.70
2023-03-21T08:55:58.102Z,99.90
2023-03-21T08:58:25.472Z,99.90
2023-03-21T09:00:53.595Z,99.90
2023-03-21T09:03:27.948Z,99.90
2023-03-21T09:05:55.552Z,99.90
2023-03-21T09:08:27.128Z,99.90
2023-03-21T09:10:55.645Z,99.90
2023-03-21T09:13:23.711Z,99.90
2023-03-21T09:16:01.681Z,99.90
2023-03-21T09:18:50.476Z,99.90
2023-03-21T09:21:21.374Z,99.90
2023-03-21T09:23:52.677Z,99.90
2023-03-21T09:26:20.525Z,99.90
2023-03-21T09:28:48.164Z,99.90
2023-03-21T09:31:16.879Z,99.90
2023-03-21T09:33:45.222Z,99.80
2023-03-21T09:36:14.716Z,99.40
2023-03-21T09:38:45.330Z,99.50
2023-03-21T09:41:34.930Z,99.00
2023-03-21T09:44:17.502Z,98.60
2023-03-21T09:46:52.324Z,98.40
2023-03-21T09:49:23.237Z,98.80
2023-03-21T09:51:57.325Z,98.90
2023-03-21T09:54:29.156Z,99.30
2023-03-21T09:59:54.031Z,99.80
2023-03-21T10:02:38.196Z,99.90
2023-03-21T10:05:18.972Z,99.90
2023-03-21T10:07:53.143Z,99.90
2023-03-21T10:10:25.528Z,99.90
2023-03-21T10:12:56.510Z,99.90
2023-03-21T10:15:27.031Z,99.90
2023-03-21T10:18:02.101Z,99.90
2023-03-21T10:20:32.958Z,99.90
2023-03-21T10:23:07.997Z,99.90
2023-03-21T10:25:38.989Z,99.90
2023-03-21T10:28:12.456Z,99.90
2023-03-21T10:30:43.967Z,99.90
2023-03-21T10:33:16.345Z,99.90
2023-03-21T10:35:50.840Z,99.90
2023-03-21T10:38:21.251Z,99.90
2023-03-21T10:40:49.051Z,99.90
2023-03-21T10:43:37.370Z,99.90
2023-03-21T10:46:09.666Z,99.90
2023-03-21T10:48:41.775Z,99.90
2023-03-21T10:51:10.075Z,99.90
2023-03-21T10:56:28.237Z,99.90
2023-03-21T10:58:58.725Z,99.90
2023-03-21T11:01:34.526Z,99.90
2023-03-21T11:04:08.943Z,99.90
2023-03-21T11:06:40.162Z,99.90
2023-03-21T11:09:14.062Z,99.90
2023-03-21T11:11:50.124Z,99.90
2023-03-21T11:14:34.015Z,99.90
2023-03-21T11:17:01.171Z,99.90
2023-03-21T11:19:33.456Z,99.90
2023-03-21T11:22:07.629Z,99.90
2023-03-21T11:24:36.442Z,99.90
2023-03-21T11:27:06.833Z,99.90
2023-03-21T11:29:38.917Z,99.90
2023-03-21T11:32:12.264Z,99.90
2023-03-21T11:34:47.968Z,99.90
2023-03-21T11:37:27.292Z,99.90
2023-03-21T11:40:09.567Z,99.90
2023-03-21T11:42:45.712Z,99.90
2023-03-21T11:45:18.685Z,99.90
2023-03-21T11:47:46.906Z,99.90
2023-03-21T11:53:27.954Z,99.90
2023-03-21T11:56:11.763Z,99.90
2023-03-21T11:58:54.118Z,99.90
2023-03-21T12:01:34.915Z,99.90
2023-03-21T12:04:33.006Z,99.90
2023-03-21T12:07:12.110Z,99.90
2023-03-21T12:09:43.002Z,99.90
2023-03-21T12:12:38.304Z,99.90
2023-03-21T12:15:18.540Z,99.90
2023-03-21T12:17:58.732Z,99.90
2023-03-21T12:20:37.689Z,99.90
2023-03-21T12:23:34.597Z,99.90
2023-03-21T12:26:14.489Z,99.90
2023-03-21T12:29:00.322Z,99.90
2023-03-21T12:31:42.322Z,99.90
2023-03-21T12:34:26.944Z,99.90
2023-03-21T12:37:07.339Z,99.90
2023-03-21T12:39:37.517Z,99.90
2023-03-21T12:42:28.126Z,99.90
2023-03-21T12:45:06.251Z,99.90
2023-03-21T12:47:43.711Z,99.90
2023-03-21T12:50:20.316Z,99.90
2023-03-21T12:52:52.760Z,99.90
2023-03-21T12:55:23.101Z,99.90
2023-03-21T12:57:58.215Z,99.90
2023-03-21T13:00:28.834Z,99.90
2023-03-21T13:03:00.195Z,99.90
2023-03-21T13:05:32.291Z,99.90
2023-03-21T13:08:05.997Z,99.90
2023-03-21T13:10:34.380Z,99.90
2023-03-21T13:13:15.281Z,99.90
2023-03-21T13:16:06.321Z,99.90
2023-03-21T13:18:45.206Z,99.90
2023-03-21T13:21:18.175Z,99.90
2023-03-21T13:24:00.845Z,99.90
2023-03-21T13:26:39.214Z,99.90
2023-03-21T13:29:25.109Z,99.90
2023-03-21T13:31:57.043Z,99.90
2023-03-21T13:34:25.342Z,99.90
2023-03-21T13:36:57.249Z,99.90
2023-03-21T13:39:28.353Z,99.90
2023-03-21T13:42:05.600Z,99.90
2023-03-21T13:44:41.212Z,99.90
2023-03-21T13:47:39.204Z,99.90
2023-03-21T13:50:36.447Z,99.90
2023-03-21T13:53:32.877Z,99.90
2023-03-21T13:56:24.400Z,99.90
2023-03-21T13:59:04.047Z,99.90
2023-03-21T14:01:39.428Z,99.90
2023-03-21T14:04:18.190Z,99.90
2023-03-21T14:06:51.207Z,99.90
2023-03-21T14:09:29.846Z,99.90
2023-03-21T14:12:03.981Z,99.90
2023-03-21T14:14:39.316Z,99.90
2023-03-21T14:17:13.125Z,99.90
2023-03-21T14:19:40.556Z,99.90
2023-03-21T14:22:12.138Z,99.90
2023-03-21T14:24:41.603Z,99.90
2023-03-21T14:27:09.061Z,99.90
2023-03-21T14:29:36.599Z,99.90
2023-03-21T14:32:05.600Z,99.90
2023-03-21T14:34:35.786Z,99.90
2023-03-21T14:37:06.912Z,99.90
2023-03-21T14:39:34.028Z,99.90
2023-03-21T14:42:06.613Z,99.90
2023-03-21T14:44:52.836Z,99.90
2023-03-21T14:47:24.244Z,99.90
2023-03-21T14:49:51.898Z,99.90
2023-03-21T14:52:24.412Z,99.90
2023-03-21T14:54:52.875Z,99.90
2023-03-21T14:57:24.898Z,99.90
2023-03-21T14:59:55.695Z,99.90
2023-03-21T15:02:27.318Z,99.90
2023-03-21T15:04:58.208Z,99.90
2023-03-21T15:07:29.052Z,99.90
2023-03-21T15:09:58.428Z,99.90
2023-03-21T15:12:27.405Z,99.90
2023-03-21T15:14:55.342Z,99.90
2023-03-21T15:17:23.859Z,99.90
2023-03-21T15:19:50.904Z,99.90
2023-03-21T15:22:30.694Z,99.90
2023-03-21T15:25:03.539Z,99.90
2023-03-21T15:27:36.535Z,99.90
2023-03-21T15:30:04.852Z,99.90
2023-03-21T15:32:37.190Z,99.90
2023-03-21T15:35:08.638Z,99.90
2023-03-21T15:37:37.560Z,99.90
2023-03-21T15:40:17.668Z,99.90
2023-03-21T15:42:45.987Z,99.90
2023-03-21T15:45:21.659Z,99.90
2023-03-21T15:47:56.210Z,99.90
2023-03-21T15:50:33.395Z,99.90
2023-03-21T15:53:03.843Z,99.90
2023-03-21T15:55:42.791Z,99.90
2023-03-21T15:58:18.005Z,99.90
2023-03-21T16:00:52.208Z,99.90
2023-03-21T16:03:25.134Z,99.90
2023-03-21T16:06:05.289Z,99.90
2023-03-21T16:08:36.210Z,99.90
2023-03-21T16:11:18.801Z,99.90
2023-03-21T16:13:47.117Z,99.90
2023-03-21T16:16:18.711Z,99.90
2023-03-21T16:18:45.894Z,99.90
2023-03-21T16:21:15.309Z,99.90
2023-03-21T16:23:42.528Z,99.90
2023-03-21T16:26:12.381Z,99.90
2023-03-21T16:28:39.438Z,99.90
2023-03-21T16:31:14.766Z,99.90
2023-03-21T16:33:41.869Z,99.90
2023-03-21T16:36:13.481Z,99.90
2023-03-21T16:38:40.992Z,99.90
2023-03-21T16:41:11.114Z,99.90
2023-03-21T16:43:43.485Z,99.90
2023-03-21T16:46:14.543Z,99.90
2023-03-21T16:48:42.908Z,99.90
2023-03-21T16:51:14.285Z,99.90
2023-03-21T16:53:41.931Z,99.90
2023-03-21T16:56:15.507Z,99.90
2023-03-21T16:58:42.566Z,99.90
2023-03-21T17:01:15.684Z,99.90
2023-03-21T17:03:43.598Z,99.90
2023-03-21T17:09:00.491Z,99.90
2023-03-21T17:11:31.431Z,99.90
2023-03-21T17:13:58.473Z,99.90
2023-03-21T17:16:27.394Z,99.90
2023-03-21T17:18:55.291Z,99.90
2023-03-21T17:21:25.572Z,99.90
2023-03-21T17:23:53.483Z,99.90
2023-03-21T17:26:22.933Z,99.90
2023-03-21T17:28:50.287Z,99.90
2023-03-21T17:31:21.313Z,99.90
2023-03-21T17:33:49.821Z,99.90
2023-03-21T17:36:19.976Z,99.90
2023-03-21T17:38:47.688Z,99.90
2023-03-21T17:41:17.110Z,99.90
2023-03-21T17:43:44.971Z,99.90
2023-03-21T17:46:13.497Z,99.90
2023-03-21T17:48:41.170Z,99.90
2023-03-21T17:51:16.252Z,99.90
2023-03-21T17:53:44.359Z,99.90
2023-03-21T17:56:15.437Z,99.90
2023-03-21T17:58:42.662Z,99.90
2023-03-21T18:01:09.701Z,99.90
2023-03-21T18:03:36.628Z,99.90
2023-03-21T18:06:04.710Z,99.90
2023-03-21T18:08:33.424Z,99.90
2023-03-21T18:11:00.752Z,99.90
2023-03-21T18:13:27.666Z,99.90
2023-03-21T18:15:54.821Z,99.90
2023-03-21T18:18:21.865Z,99.90
2023-03-21T18:20:52.591Z,99.90
2023-03-21T18:23:21.790Z,99.90
2023-03-21T18:25:52.313Z,99.90
2023-03-21T18:28:21.309Z,99.90
2023-03-21T18:33:40.234Z,99.90
2023-03-21T18:36:09.275Z,99.90
2023-03-21T18:38:37.294Z,99.90
2023-03-21T18:41:07.614Z,99.90
2023-03-21T18:46:23.638Z,99.90
2023-03-21T18:48:51.815Z,99.90
2023-03-21T18:54:04.516Z,99.90
2023-03-21T18:59:21.652Z,99.90
2023-03-21T19:01:49.843Z,99.90
2023-03-21T19:04:25.587Z,99.90
2023-03-21T19:06:58.112Z,99.90
2023-03-21T19:09:31.359Z,99.90
2023-03-21T19:12:01.955Z,99.90
2023-03-21T19:14:29.760Z,99.90
2023-03-21T19:17:55.874Z,99.90
2023-03-21T19:19:46.476Z,99.90
2023-03-21T19:22:13.526Z,99.90
2023-03-21T19:24:41.358Z,99.90
2023-03-21T19:27:10.577Z,99.90
2023-03-21T19:29:38.035Z,99.90
2023-03-21T19:32:06.449Z,99.90
2023-03-21T19:34:34.398Z,99.90
2023-03-21T19:37:02.645Z,99.90
2023-03-21T19:39:30.167Z,99.90
2023-03-21T19:42:14.811Z,99.90
2023-03-21T19:44:44.141Z,99.90
2023-03-21T19:50:42.096Z,99.90
2023-03-21T19:52:43.622Z,99.90
2023-03-21T19:55:11.674Z,99.90
2023-03-21T19:57:38.626Z,99.90
2023-03-21T20:00:11.754Z,99.90
2023-03-21T20:02:39.274Z,99.90
2023-03-21T20:05:08.826Z,99.90
2023-03-21T20:07:36.417Z,99.90
2023-03-21T20:10:03.994Z,99.90
2023-03-21T20:12:32.627Z,99.90
2023-03-21T20:15:12.173Z,99.90
2023-03-21T20:17:45.751Z,99.90
2023-03-21T20:20:18.157Z,99.90
2023-03-21T20:23:07.415Z,99.90
2023-03-21T20:25:36.634Z,99.90
2023-03-21T20:28:25.947Z,99.90
2023-03-21T20:30:54.950Z,99.90
2023-03-21T20:33:23.410Z,99.90
2023-03-21T20:38:43.422Z,99.90
2023-03-21T20:41:10.546Z,99.90
2023-03-21T20:46:25.091Z,99.90
2023-03-21T20:48:53.833Z,99.90
2023-03-21T20:54:09.590Z,99.90
2023-03-21T20:56:36.940Z,99.90
2023-03-21T20:59:16.830Z,99.90
2023-03-21T21:01:48.089Z,99.90
2023-03-21T21:04:19.959Z,99.90
2023-03-21T21:06:47.493Z,99.90
2023-03-21T21:09:14.603Z,99.90
2023-03-21T21:12:06.651Z,99.90
2023-03-21T21:14:28.835Z,99.90
2023-03-21T21:16:55.782Z,99.90
2023-03-21T21:19:24.669Z,99.90
2023-03-21T21:21:51.696Z,99.90
2023-03-21T21:24:18.740Z,99.90
2023-03-21T21:26:48.801Z,99.90
2023-03-21T21:29:17.197Z,99.90
2023-03-21T21:31:46.643Z,99.90
2023-03-21T21:34:13.856Z,99.90
2023-03-21T21:36:43.093Z,99.90
2023-03-21T21:39:10.118Z,99.90
2023-03-21T21:41:37.098Z,99.90
2023-03-21T21:44:04.326Z,99.90
2023-03-21T21:46:31.578Z,99.90
2023-03-21T21:48:59.616Z,99.90
2023-03-21T21:51:26.813Z,99.90
2023-03-21T21:53:55.898Z,99.90
2023-03-21T21:56:24.608Z,99.90
2023-03-21T21:58:53.096Z,99.90
2023-03-21T22:01:23.668Z,99.90
2023-03-21T22:03:51.629Z,99.90
2023-03-21T22:06:19.004Z,99.90
2023-03-21T22:08:47.224Z,99.90
2023-03-21T22:11:16.357Z,99.90
2023-03-21T22:13:43.588Z,99.90
2023-03-21T22:16:11.123Z,99.90
2023-03-21T22:18:38.559Z,99.90
2023-03-21T22:21:07.124Z,99.90
2023-03-21T22:23:34.169Z,99.90
2023-03-21T22:26:01.565Z,99.90
2023-03-21T22:28:30.988Z,99.90
2023-03-21T22:30:58.436Z,99.90
2023-03-21T22:33:25.903Z,99.90
2023-03-21T22:35:53.070Z,99.90
2023-03-21T22:38:24.158Z,99.90
2023-03-21T22:40:55.059Z,99.90
2023-03-21T22:43:22.385Z,99.90
2023-03-21T22:45:52.126Z,99.90
2023-03-21T22:48:20.324Z,99.90
2023-03-21T22:50:48.483Z,99.90
2023-03-21T22:53:15.521Z,99.90
2023-03-21T22:55:43.001Z,99.90
2023-03-21T22:58:10.420Z,99.90
2023-03-21T23:00:38.392Z,99.90
2023-03-21T23:03:06.870Z,99.90
2023-03-21T23:05:41.576Z,99.90
2023-03-21T23:08:08.905Z,99.90
2023-03-21T23:10:38.039Z,99.90
2023-03-21T23:13:05.649Z,99.90
2023-03-21T23:15:33.097Z,99.90
2023-03-21T23:18:00.246Z,99.90
2023-03-21T23:20:28.641Z,99.90
2023-03-21T23:22:56.378Z,99.90
2023-03-21T23:25:24.743Z,99.90
2023-03-21T23:27:52.233Z,99.90
2023-03-21T23:30:19.368Z,99.90
2023-03-21T23:32:47.508Z,99.90
2023-03-21T23:35:14.471Z,99.90
2023-03-21T23:37:52.968Z,99.90
2023-03-21T23:43:05.992Z,99.90
2023-03-21T23:45:32.921Z,99.90
2023-03-21T23:47:59.958Z,99.90
2023-03-21T23:50:26.932Z,99.90
2023-03-21T23:52:55.777Z,99.90
2023-03-21T23:55:22.703Z,99.90
2023-03-21T23:57:50.300Z,99.90
